Terminal Aerodrome Forecast
Issued by NWS

Home | Current Version | Previous Version | Graphics & Text | Print | Product List | Glossary On
Versions: 1 2 3 4 5 6 7 8 9 10 11 12 13 14 15 16 17 18 19 20 21 22 23 24 25 26
933
FTUS41 KCLE 280530
TAFFDY
TAF
KFDY 280530Z 2806/2906 09004KT P6SM SCT015 BKN060
      TEMPO 2812/2814 3SM BR SCT006 BKN015
     FM281700 20010KT P6SM VCTS BKN035CB BKN050
     FM282100 23015KT P6SM VCTS BKN035CB BKN050
     FM290000 26013KT P6SM SCT015=

USA.gov is the U.S. government's official web portal to all federal, state and local government web resources and services.